Time;durP1;ratioP1;P1;durP2;ratioP2;P2;SDS_P1;SDS_P2;PMS_P1;PMS_P2;Temp;Humidity;BMP_temperature;BMP_pressure;BME280_temperature;BME280_humidity;BME280_pressure;Samples;Min_cycle;Max_cycle;Signal;HPM_P1;HPM_P2
2023/12/19 00:02:08;;;;;;;0.50;0.50;;;;;;;2.60;100.00;101484.44;4991523;28;20457;-52
2023/12/19 00:04:36;;;;;;;0.20;0.10;;;;;;;2.52;100.00;101499.09;4989449;28;20528;-52
2023/12/19 00:07:02;;;;;;;0.20;0.10;;;;;;;2.88;100.00;101498.19;4992530;28;20541;-52
2023/12/19 00:09:29;;;;;;;0.20;0.10;;;;;;;2.72;100.00;101496.94;4984415;28;20482;-52
2023/12/19 00:11:55;;;;;;;0.20;0.10;;;;;;;2.75;100.00;101494.41;4987145;28;20829;-52
2023/12/19 00:14:22;;;;;;;0.20;0.20;;;;;;;2.73;100.00;101488.19;4982020;28;20453;-52
2023/12/19 00:16:48;;;;;;;0.20;0.10;;;;;;;2.58;100.00;101482.59;4988658;28;20544;-51
2023/12/19 00:19:15;;;;;;;0.20;0.20;;;;;;;2.54;100.00;101496.50;4982152;28;20545;-51
2023/12/19 00:21:41;;;;;;;0.20;0.20;;;;;;;2.80;100.00;101508.50;4980275;28;20451;-51
2023/12/19 00:24:08;;;;;;;0.20;0.10;;;;;;;2.89;100.00;101507.84;4984173;28;20458;-52
2023/12/19 00:26:34;;;;;;;0.20;0.10;;;;;;;2.88;100.00;101496.44;4987252;28;20512;-52
2023/12/19 00:29:01;;;;;;;0.20;0.10;;;;;;;2.78;100.00;101498.81;4981705;28;20540;-51
2023/12/19 00:31:27;;;;;;;0.20;0.10;;;;;;;2.86;100.00;101494.63;4980200;28;20529;-51
2023/12/19 00:33:54;;;;;;;0.20;0.10;;;;;;;2.75;100.00;101496.13;4992885;28;21021;-52
2023/12/19 00:36:21;;;;;;;0.20;0.20;;;;;;;2.71;100.00;101507.41;4983430;28;20454;-51
2023/12/19 00:38:49;;;;;;;0.20;0.10;;;;;;;2.65;100.00;101503.78;4996379;28;20904;-52
2023/12/19 00:41:16;;;;;;;0.20;0.20;;;;;;;2.81;100.00;101504.13;4984617;28;20463;-52
2023/12/19 00:43:43;;;;;;;0.20;0.10;;;;;;;2.73;100.00;101498.69;4985911;28;20477;-51
2023/12/19 00:46:09;;;;;;;0.20;0.10;;;;;;;2.61;100.00;101508.94;4982989;28;20489;-51
2023/12/19 00:48:36;;;;;;;0.20;0.10;;;;;;;2.82;100.00;101505.91;4986056;28;20485;-51
2023/12/19 00:51:08;;;;;;;0.20;0.10;;;;;;;2.87;100.00;101506.88;4989420;28;20455;-51
2023/12/19 00:53:34;;;;;;;0.20;0.10;;;;;;;2.85;100.00;101508.59;4986887;28;20528;-52
2023/12/19 00:56:01;;;;;;;0.20;0.10;;;;;;;2.87;100.00;101499.91;4982392;28;20887;-51
2023/12/19 00:58:27;;;;;;;0.20;0.10;;;;;;;2.78;100.00;101493.56;4987666;28;21057;-52
2023/12/19 01:00:54;;;;;;;0.20;0.10;;;;;;;2.90;100.00;101492.13;4982216;28;20457;-51
2023/12/19 01:03:20;;;;;;;0.20;0.10;;;;;;;2.81;100.00;101491.91;4990196;28;20454;-52
2023/12/19 01:05:47;;;;;;;0.20;0.10;;;;;;;2.78;100.00;101494.47;4994996;28;20489;-52
2023/12/19 01:08:13;;;;;;;0.20;0.10;;;;;;;2.72;100.00;101494.31;4994055;28;20532;-51
2023/12/19 01:10:40;;;;;;;0.20;0.10;;;;;;;2.74;100.00;101489.09;4982528;28;20461;-52
2023/12/19 01:13:06;;;;;;;21.00;10.93;;;;;;;2.68;100.00;101481.97;4984523;28;20457;-51
2023/12/19 01:15:33;;;;;;;0.20;0.20;;;;;;;2.70;100.00;101475.00;4988804;28;20509;-51
2023/12/19 01:17:59;;;;;;;0.30;0.20;;;;;;;2.86;100.00;101484.09;4987326;28;20528;-52
2023/12/19 01:20:26;;;;;;;0.20;0.10;;;;;;;2.93;100.00;101489.53;4981694;28;21029;-52
2023/12/19 01:22:53;;;;;;;0.20;0.10;;;;;;;3.16;100.00;101491.78;4983718;28;20485;-52
2023/12/19 01:25:19;;;;;;;0.20;0.10;;;;;;;3.23;100.00;101502.44;4988754;28;21385;-52
2023/12/19 01:27:46;;;;;;;0.20;0.10;;;;;;;3.31;100.00;101517.50;4991082;28;20472;-52
2023/12/19 01:30:13;;;;;;;0.20;0.10;;;;;;;3.41;100.00;101532.56;4979594;28;20533;-52
2023/12/19 01:32:39;;;;;;;0.20;0.20;;;;;;;3.31;100.00;101515.75;4975832;28;20463;-52
2023/12/19 01:35:06;;;;;;;0.20;0.20;;;;;;;3.35;100.00;101519.31;4975293;28;20996;-52
2023/12/19 01:37:33;;;;;;;0.20;0.10;;;;;;;3.38;100.00;101525.50;4991538;23;20488;-50
2023/12/19 01:39:59;;;;;;;0.20;0.10;;;;;;;3.25;100.00;101513.84;5003227;28;20457;-54
2023/12/19 01:42:27;;;;;;;0.20;0.10;;;;;;;3.31;100.00;101513.13;4996476;28;20946;-50
2023/12/19 01:45:10;;;;;;;0.20;0.10;;;;;;;3.27;100.00;101496.38;4980945;28;20525;-51
2023/12/19 01:47:39;;;;;;;0.20;0.20;;;;;;;3.24;100.00;101485.81;4993625;28;21301;-50
2023/12/19 01:50:07;;;;;;;0.20;0.10;;;;;;;3.25;100.00;101492.84;4987261;28;20848;-51
2023/12/19 01:52:38;;;;;;;0.20;0.10;;;;;;;3.25;100.00;101499.84;4994204;28;20449;-51
2023/12/19 01:55:06;;;;;;;0.20;0.20;;;;;;;3.31;100.00;101505.22;4994040;28;20934;-51
2023/12/19 01:57:33;;;;;;;0.20;0.20;;;;;;;3.26;100.00;101509.50;4994182;28;20464;-51
2023/12/19 02:00:00;;;;;;;0.20;0.10;;;;;;;3.31;100.00;101505.22;4993839;28;20473;-51
2023/12/19 02:02:27;;;;;;;0.20;0.10;;;;;;;3.09;100.00;101524.91;4991034;28;20533;-51
2023/12/19 02:04:56;;;;;;;0.20;0.10;;;;;;;3.23;100.00;101515.56;4992630;28;20899;-51
2023/12/19 02:07:23;;;;;;;0.20;0.20;;;;;;;3.13;100.00;101518.84;4993633;28;20496;-50
2023/12/19 02:09:51;;;;;;;0.20;0.10;;;;;;;3.23;100.00;101523.44;4983420;28;20457;-51
2023/12/19 02:12:18;;;;;;;0.20;0.10;;;;;;;3.33;100.00;101510.53;4989804;28;20514;-51
2023/12/19 02:14:45;;;;;;;0.20;0.10;;;;;;;3.38;100.00;101514.13;4978130;28;21091;-51
2023/12/19 02:17:12;;;;;;;0.20;0.10;;;;;;;3.32;99.84;101519.25;4994808;28;20536;-52
2023/12/19 02:19:49;;;;;;;0.20;0.10;;;;;;;3.25;99.83;101523.47;4984566;28;20480;-58
2023/12/19 02:22:15;;;;;;;0.20;0.10;;;;;;;3.21;100.00;101509.41;4995486;28;20453;-54
2023/12/19 02:24:42;;;;;;;0.30;0.20;;;;;;;3.35;99.90;101498.28;4996588;28;20501;-51
2023/12/19 02:27:10;;;;;;;0.20;0.10;;;;;;;3.26;100.00;101505.13;4989409;28;20469;-51
2023/12/19 02:29:36;;;;;;;0.20;0.10;;;;;;;3.22;99.67;101511.16;4989697;28;20477;-51
2023/12/19 02:32:03;;;;;;;0.20;0.10;;;;;;;3.18;100.00;101500.56;4983262;28;20976;-51
2023/12/19 02:34:30;;;;;;;5.73;4.33;;;;;;;3.16;100.00;101507.56;4995195;28;21053;-51
2023/12/19 02:36:56;;;;;;;0.20;0.20;;;;;;;3.12;100.00;101495.19;4981430;28;20457;-51
2023/12/19 02:39:23;;;;;;;0.47;0.47;;;;;;;3.28;100.00;101498.16;4993346;28;20509;-51
2023/12/19 02:41:50;;;;;;;0.20;0.10;;;;;;;2.97;100.00;101499.25;4995324;28;20536;-51
2023/12/19 02:44:16;;;;;;;0.20;0.10;;;;;;;2.95;100.00;101508.84;4980184;28;20538;-51
2023/12/19 02:46:43;;;;;;;0.20;0.10;;;;;;;3.05;100.00;101503.81;4993161;28;20535;-51
2023/12/19 02:49:09;;;;;;;0.20;0.10;;;;;;;3.14;100.00;101489.09;4993816;28;20579;-52
2023/12/19 02:51:36;;;;;;;0.20;0.10;;;;;;;3.07;100.00;101484.59;4988239;28;20888;-51
2023/12/19 02:54:03;;;;;;;0.20;0.10;;;;;;;3.13;100.00;101486.44;4982765;28;20461;-52
2023/12/19 02:56:31;;;;;;;1.97;1.87;;;;;;;3.08;100.00;101478.47;4995108;28;20453;-55
2023/12/19 02:58:58;;;;;;;0.20;0.10;;;;;;;2.84;100.00;101478.81;4992468;28;21020;-50
2023/12/19 03:01:24;;;;;;;0.40;0.40;;;;;;;2.94;100.00;101456.28;4993032;28;20459;-51
2023/12/19 03:03:51;;;;;;;0.20;0.10;;;;;;;2.99;100.00;101452.00;4992349;28;20532;-50
2023/12/19 03:06:18;;;;;;;0.20;0.10;;;;;;;3.01;100.00;101437.16;4992611;28;20832;-51
2023/12/19 03:08:46;;;;;;;0.20;0.10;;;;;;;2.89;100.00;101431.69;4990041;28;20552;-50
2023/12/19 03:11:15;;;;;;;0.20;0.10;;;;;;;2.93;100.00;101423.00;4982278;28;20468;-50
2023/12/19 03:13:42;;;;;;;0.20;0.10;;;;;;;3.02;100.00;101417.97;4994681;28;20553;-51
2023/12/19 03:16:08;;;;;;;0.20;0.10;;;;;;;3.07;100.00;101434.69;4995449;28;20500;-51
2023/12/19 03:18:35;;;;;;;0.20;0.10;;;;;;;3.07;100.00;101439.06;4981534;28;20501;-51
2023/12/19 03:21:01;;;;;;;0.20;0.10;;;;;;;2.97;100.00;101437.97;4994612;28;20471;-51
2023/12/19 03:23:28;;;;;;;0.20;0.10;;;;;;;3.02;100.00;101420.59;4992434;28;21038;-51
2023/12/19 03:25:54;;;;;;;0.20;0.20;;;;;;;3.07;100.00;101425.91;4994673;28;20588;-56
2023/12/19 03:28:21;;;;;;;0.63;0.60;;;;;;;3.08;100.00;101431.19;4980595;28;20473;-51
2023/12/19 03:30:50;;;;;;;0.30;0.10;;;;;;;3.07;100.00;101420.66;4992368;28;20485;-50
2023/12/19 03:33:17;;;;;;;0.20;0.10;;;;;;;3.31;100.00;101417.66;4994492;28;20804;-51
2023/12/19 03:35:43;;;;;;;0.20;0.10;;;;;;;3.16;99.64;101403.34;4993309;28;20457;-52
2023/12/19 03:38:11;;;;;;;0.20;0.10;;;;;;;3.19;99.73;101395.53;4995031;28;20848;-52
2023/12/19 03:40:37;;;;;;;0.20;0.10;;;;;;;3.12;99.97;101398.00;4995974;28;20453;-51
2023/12/19 03:43:03;;;;;;;0.20;0.10;;;;;;;3.24;99.40;101404.38;4991162;28;20522;-51
2023/12/19 03:45:30;;;;;;;0.20;0.10;;;;;;;3.22;99.66;101402.56;4986732;28;20551;-51
2023/12/19 03:47:56;;;;;;;0.20;0.10;;;;;;;3.28;99.32;101400.94;4995303;28;20501;-51
2023/12/19 03:50:23;;;;;;;0.20;0.17;;;;;;;3.16;99.27;101403.34;4983566;28;20465;-51
2023/12/19 03:52:50;;;;;;;0.20;0.10;;;;;;;3.26;99.06;101413.16;4991379;28;20454;-51
2023/12/19 03:55:16;;;;;;;0.20;0.10;;;;;;;3.23;98.90;101415.75;4994930;28;20441;-51
2023/12/19 03:57:42;;;;;;;0.20;0.10;;;;;;;3.25;98.82;101419.28;4987509;28;20472;-51
2023/12/19 04:00:09;;;;;;;0.20;0.10;;;;;;;3.32;99.24;101429.91;4983910;28;20505;-51
2023/12/19 04:02:36;;;;;;;0.20;0.10;;;;;;;3.26;98.66;101436.81;4993833;28;20780;-52
2023/12/19 04:05:03;;;;;;;0.20;0.10;;;;;;;3.26;98.67;101441.19;4994396;28;20453;-57
2023/12/19 04:07:31;;;;;;;0.20;0.10;;;;;;;3.24;98.80;101430.66;4994576;28;20445;-51
2023/12/19 04:09:58;;;;;;;0.20;0.10;;;;;;;3.16;98.65;101431.38;4996910;28;20532;-51
2023/12/19 04:12:25;;;;;;;0.20;0.10;;;;;;;3.09;98.19;101438.22;4992102;28;20461;-51
2023/12/19 04:14:51;;;;;;;0.20;0.10;;;;;;;3.18;98.43;101438.41;4996413;28;20453;-51
2023/12/19 04:17:18;;;;;;;0.20;0.10;;;;;;;3.18;97.86;101433.16;4999456;28;20450;-51
2023/12/19 04:19:44;;;;;;;0.20;0.10;;;;;;;3.16;98.29;101440.13;4999259;28;20556;-52
2023/12/19 04:22:11;;;;;;;0.20;0.10;;;;;;;3.34;97.76;101442.22;4999154;28;20457;-51
2023/12/19 04:24:37;;;;;;;0.20;0.10;;;;;;;3.23;97.76;101442.00;5000017;28;20511;-51
2023/12/19 04:27:04;;;;;;;0.20;0.10;;;;;;;3.25;98.05;101427.16;5002652;28;20516;-52
2023/12/19 04:29:30;;;;;;;0.20;0.20;;;;;;;3.17;97.75;101426.13;4985950;28;20529;-51
2023/12/19 04:31:57;;;;;;;0.20;0.10;;;;;;;3.24;97.42;101414.88;4997634;28;20540;-51
2023/12/19 04:34:23;;;;;;;0.20;0.20;;;;;;;3.24;97.66;101412.25;4998207;28;20532;-51
2023/12/19 04:36:50;;;;;;;0.20;0.10;;;;;;;2.99;97.39;101410.00;4983033;28;20453;-51
2023/12/19 04:39:16;;;;;;;0.20;0.10;;;;;;;3.05;97.33;101414.50;4994946;28;20857;-51
2023/12/19 04:41:43;;;;;;;0.20;0.10;;;;;;;3.12;97.28;101412.00;4996992;28;20533;-50
2023/12/19 04:44:09;;;;;;;0.20;0.10;;;;;;;3.03;97.38;101406.59;4987419;28;20485;-50
2023/12/19 04:46:35;;;;;;;0.20;0.10;;;;;;;3.20;97.96;101409.53;5004032;28;20496;-51
2023/12/19 04:49:02;;;;;;;0.20;0.10;;;;;;;3.19;97.70;101420.91;4999552;28;20560;-51
2023/12/19 04:51:28;;;;;;;0.30;0.20;;;;;;;3.16;97.68;101405.09;4987390;28;20450;-52
2023/12/19 04:53:56;;;;;;;0.20;0.10;;;;;;;3.27;98.00;101406.16;4999683;28;20458;-52
2023/12/19 04:56:23;;;;;;;0.30;0.20;;;;;;;3.27;96.56;101393.03;4993156;28;20474;-51
2023/12/19 04:58:49;;;;;;;0.20;0.10;;;;;;;3.14;97.01;101391.91;4991699;28;20531;-51
2023/12/19 05:01:16;;;;;;;0.20;0.10;;;;;;;3.30;97.31;101406.25;4996219;28;20484;-52
2023/12/19 05:03:43;;;;;;;0.20;0.10;;;;;;;3.32;97.02;101406.28;4993674;28;20453;-51
2023/12/19 05:06:17;;;;;;;0.20;0.10;;;;;;;3.28;96.97;101403.56;4997512;28;20528;-52
2023/12/19 05:08:45;;;;;;;0.20;0.10;;;;;;;3.37;97.21;101402.88;4995220;28;20994;-51
2023/12/19 05:11:12;;;;;;;0.20;0.10;;;;;;;3.34;97.10;101407.19;4986528;28;21037;-51
2023/12/19 05:13:38;;;;;;;0.20;0.10;;;;;;;3.60;97.19;101397.16;4997280;28;20460;-57
2023/12/19 05:16:14;;;;;;;0.20;0.10;;;;;;;3.36;97.10;101402.84;4988263;28;20446;-51
2023/12/19 05:18:42;;;;;;;0.20;0.10;;;;;;;3.41;97.16;101404.69;4995129;28;20475;-51
2023/12/19 05:21:09;;;;;;;11.77;10.87;;;;;;;3.48;96.69;101410.94;4996175;28;20457;-52
2023/12/19 05:23:37;;;;;;;0.20;0.10;;;;;;;3.56;97.02;101405.00;4997514;28;20489;-51
2023/12/19 05:26:05;;;;;;;0.20;0.10;;;;;;;3.46;97.70;101413.56;4986519;28;20936;-53
2023/12/19 05:28:34;;;;;;;0.20;0.10;;;;;;;3.64;97.52;101420.00;4995435;28;20480;-51
2023/12/19 05:31:02;;;;;;;0.20;0.10;;;;;;;3.56;97.23;101415.50;4997133;28;20485;-51
2023/12/19 05:33:29;;;;;;;0.20;0.10;;;;;;;3.51;97.19;101416.25;4985665;28;20449;-51
2023/12/19 05:35:57;;;;;;;0.20;0.10;;;;;;;3.48;97.65;101411.84;4984226;28;20892;-51
2023/12/19 05:38:23;;;;;;;0.20;0.20;;;;;;;3.43;98.15;101415.25;4995787;28;20556;-51
2023/12/19 05:40:56;;;;;;;0.20;0.10;;;;;;;3.37;98.54;101408.13;4997247;28;20457;-51
2023/12/19 05:43:24;;;;;;;0.20;0.10;;;;;;;3.39;98.63;101402.88;4990150;28;20811;-51
2023/12/19 05:45:50;;;;;;;0.20;0.10;;;;;;;3.41;98.69;101401.16;4990703;28;20563;-51
2023/12/19 05:48:17;;;;;;;0.20;0.10;;;;;;;3.50;99.22;101398.72;4996549;28;21056;-52
2023/12/19 05:50:43;;;;;;;0.20;0.10;;;;;;;3.53;98.63;101401.41;4995213;28;20872;-51
2023/12/19 05:53:10;;;;;;;0.20;0.10;;;;;;;3.51;98.96;101393.47;4984265;28;20457;-51
2023/12/19 05:55:36;;;;;;;0.20;0.10;;;;;;;3.30;99.67;101381.72;4996626;28;20965;-51
2023/12/19 05:58:05;;;;;;;0.20;0.10;;;;;;;3.48;99.88;101376.78;4990460;28;20521;-51
2023/12/19 06:00:32;;;;;;;0.20;0.10;;;;;;;3.48;99.98;101379.41;4995228;28;20450;-52
2023/12/19 06:02:58;;;;;;;0.20;0.13;;;;;;;3.71;100.00;101390.34;4985272;28;20931;-52
2023/12/19 06:05:25;;;;;;;0.20;0.10;;;;;;;3.53;99.91;101393.50;4995595;28;20480;-51
2023/12/19 06:07:51;;;;;;;0.20;0.10;;;;;;;3.56;100.00;101381.34;4996187;28;20930;-50
2023/12/19 06:10:18;;;;;;;0.20;0.13;;;;;;;3.72;99.87;101371.06;4982762;28;20891;-54
2023/12/19 06:12:44;;;;;;;0.20;0.10;;;;;;;3.59;100.00;101380.50;4995970;28;20450;-51
2023/12/19 06:15:13;;;;;;;0.20;0.10;;;;;;;3.52;100.00;101383.84;4994296;28;20457;-51
2023/12/19 06:17:46;;;;;;;0.20;0.10;;;;;;;3.70;100.00;101372.75;4985646;28;21029;-51
2023/12/19 06:20:12;;;;;;;0.20;0.10;;;;;;;3.67;100.00;101381.50;4996029;28;20460;-53
2023/12/19 06:22:41;;;;;;;0.20;0.10;;;;;;;3.66;99.76;101384.09;4985876;28;20458;-57
2023/12/19 06:25:08;;;;;;;0.20;0.10;;;;;;;3.75;100.00;101376.38;4993732;28;20874;-51
2023/12/19 06:27:35;;;;;;;0.20;0.10;;;;;;;3.74;100.00;101378.13;4995049;28;20499;-52
2023/12/19 06:30:03;;;;;;;0.20;0.10;;;;;;;3.92;99.64;101367.00;4983202;28;20536;-50
2023/12/19 06:32:47;;;;;;;0.20;0.13;;;;;;;3.75;99.75;101363.22;4996111;28;20445;-52
2023/12/19 06:35:13;;;;;;;0.20;0.10;;;;;;;3.84;100.00;101364.28;4982471;28;20476;-51
2023/12/19 06:37:40;;;;;;;0.20;0.20;;;;;;;3.75;99.24;101356.22;4983328;28;20477;-52
2023/12/19 06:40:07;;;;;;;0.20;0.10;;;;;;;3.79;99.41;101357.16;4996058;28;20446;-51
2023/12/19 06:42:34;;;;;;;0.20;0.10;;;;;;;3.70;100.00;101357.91;4982773;28;20450;-51
2023/12/19 06:45:00;;;;;;;0.20;0.10;;;;;;;3.46;100.00;101357.47;4995224;28;20508;-50
2023/12/19 06:47:28;;;;;;;0.20;0.10;;;;;;;3.76;100.00;101355.38;4995353;28;20854;-50
2023/12/19 06:49:54;;;;;;;0.20;0.10;;;;;;;3.61;100.00;101341.97;4993432;28;20457;-50
2023/12/19 06:52:21;;;;;;;0.20;0.10;;;;;;;3.85;100.00;101347.63;4992355;28;20507;-50
2023/12/19 06:54:48;;;;;;;0.30;0.20;;;;;;;3.55;99.72;101339.22;4982202;28;20465;-50
2023/12/19 06:57:15;;;;;;;0.20;0.20;;;;;;;3.50;100.00;101335.63;4995814;28;20445;-50
2023/12/19 06:59:41;;;;;;;0.20;0.10;;;;;;;3.83;100.00;101335.28;4983500;28;20966;-51
2023/12/19 07:02:09;;;;;;;0.20;0.10;;;;;;;3.81;100.00;101340.53;4982827;28;20538;-51
2023/12/19 07:04:35;;;;;;;2.97;2.77;;;;;;;3.80;99.56;101336.13;4995124;28;20480;-52
2023/12/19 07:07:02;;;;;;;0.20;0.10;;;;;;;3.88;99.78;101330.13;4995742;28;21013;-51
2023/12/19 07:09:29;;;;;;;1.70;1.70;;;;;;;3.65;99.76;101325.38;4995507;28;20465;-52
2023/12/19 07:11:57;;;;;;;0.20;0.10;;;;;;;3.93;100.00;101326.69;4982368;28;20462;-51
2023/12/19 07:14:23;;;;;;;0.20;0.10;;;;;;;3.86;100.00;101323.09;4995681;28;20532;-51
2023/12/19 07:16:50;;;;;;;0.20;0.10;;;;;;;3.82;100.00;101313.38;4992863;28;20450;-50
2023/12/19 07:19:16;;;;;;;0.20;0.10;;;;;;;3.90;99.97;101297.72;4975968;28;20474;-51
2023/12/19 07:21:44;;;;;;;0.20;0.10;;;;;;;3.80;99.88;101312.47;4991488;28;20449;-53
2023/12/19 07:24:11;;;;;;;0.20;0.10;;;;;;;3.77;100.00;101299.28;4995592;28;20464;-54
2023/12/19 07:26:37;;;;;;;0.20;0.10;;;;;;;3.81;100.00;101300.19;4981367;28;20857;-59
2023/12/19 07:29:05;;;;;;;0.20;0.10;;;;;;;3.69;100.00;101295.63;4995460;28;20470;-55
2023/12/19 07:31:32;;;;;;;0.20;0.10;;;;;;;3.75;100.00;101295.75;4992585;28;20459;-50
2023/12/19 07:34:04;;;;;;;0.20;0.10;;;;;;;4.10;99.93;101301.50;4987698;28;20453;-50
2023/12/19 07:36:32;;;;;;;0.20;0.10;;;;;;;3.97;99.71;101293.41;4995334;28;20457;-52
2023/12/19 07:38:59;;;;;;;0.20;0.10;;;;;;;3.95;99.81;101295.16;4996874;28;20477;-52
2023/12/19 07:41:31;;;;;;;0.20;0.10;;;;;;;4.11;99.99;101303.31;4996606;28;20460;-52
2023/12/19 07:43:58;;;;;;;0.20;0.13;;;;;;;3.97;99.63;101290.78;4986380;28;20446;-55
2023/12/19 07:46:25;;;;;;;0.20;0.10;;;;;;;4.00;99.83;101306.66;4997500;28;20858;-54
2023/12/19 07:48:52;;;;;;;0.20;0.10;;;;;;;3.99;99.47;101305.75;4998917;28;20938;-54
2023/12/19 07:51:23;;;;;;;0.30;0.20;;;;;;;4.04;99.46;101311.06;4985582;28;20453;-62
2023/12/19 07:53:50;;;;;;;0.20;0.10;;;;;;;4.12;99.31;101319.97;4997756;28;20888;-53
2023/12/19 07:56:16;;;;;;;0.20;0.17;;;;;;;4.00;99.75;101312.78;4990565;28;20450;-53
2023/12/19 07:58:43;;;;;;;0.20;0.10;;;;;;;4.14;99.39;101326.13;4989635;28;20469;-54
2023/12/19 08:01:12;;;;;;;0.20;0.10;;;;;;;4.12;99.60;101320.84;4996578;28;20809;-55
2023/12/19 08:03:41;;;;;;;0.20;0.10;;;;;;;4.19;99.44;101315.66;4992448;28;20534;-56
2023/12/19 08:06:08;;;;;;;0.20;0.10;;;;;;;4.28;98.75;101316.69;4994312;28;20449;-57
2023/12/19 08:08:34;;;;;;;0.20;0.10;;;;;;;4.24;99.21;101313.97;4996800;28;20473;-55
2023/12/19 08:11:01;;;;;;;0.20;0.10;;;;;;;4.24;98.67;101312.22;4984656;28;20815;-57
2023/12/19 08:13:27;;;;;;;0.20;0.10;;;;;;;4.05;99.30;101324.25;4996596;28;20543;-58
2023/12/19 08:15:55;;;;;;;0.20;0.10;;;;;;;3.95;99.08;101301.28;5015127;28;20444;-61
2023/12/19 08:18:22;;;;;;;0.20;0.10;;;;;;;3.93;99.51;101297.75;5004262;28;20474;-60
2023/12/19 08:20:49;;;;;;;0.20;0.20;;;;;;;4.03;99.13;101304.94;5012028;28;20456;-58
2023/12/19 08:23:15;;;;;;;0.20;0.10;;;;;;;4.00;99.44;101293.50;4999881;28;20947;-61
2023/12/19 08:25:43;;;;;;;0.20;0.10;;;;;;;4.09;98.46;101306.75;4994036;28;20484;-53
2023/12/19 08:28:10;;;;;;;0.20;0.10;;;;;;;4.31;98.82;101302.69;5006182;28;20587;-57
2023/12/19 08:30:39;;;;;;;0.20;0.10;;;;;;;4.37;97.95;101295.72;4992004;28;20454;-55
2023/12/19 08:33:05;;;;;;;0.20;0.10;;;;;;;4.19;98.42;101300.75;4995905;28;20949;-61
2023/12/19 08:35:32;;;;;;;0.20;0.10;;;;;;;4.24;97.86;101290.28;4987629;28;20512;-64
2023/12/19 08:37:58;;;;;;;0.20;0.10;;;;;;;3.97;97.99;101288.16;4993555;28;20521;-51
2023/12/19 08:40:25;;;;;;;0.20;0.10;;;;;;;4.22;98.05;101289.38;4990905;28;20462;-52
2023/12/19 08:42:55;;;;;;;0.20;0.10;;;;;;;4.01;97.96;101284.72;4994789;28;20503;-52
2023/12/19 08:45:23;;;;;;;0.20;0.10;;;;;;;3.98;97.59;101280.31;4997899;28;20457;-59
2023/12/19 08:47:50;;;;;;;0.20;0.10;;;;;;;4.04;98.08;101282.13;4987881;28;20493;-52
2023/12/19 08:50:17;;;;;;;0.20;0.10;;;;;;;4.08;98.02;101283.94;4998474;28;20454;-52
2023/12/19 08:52:44;;;;;;;0.20;0.10;;;;;;;4.18;97.94;101284.97;4999497;28;20453;-51
2023/12/19 08:55:12;;;;;;;0.20;0.10;;;;;;;4.26;97.61;101285.97;4986680;28;20952;-55
2023/12/19 08:57:40;;;;;;;0.20;0.10;;;;;;;4.28;97.38;101284.22;4995578;28;20453;-55
2023/12/19 09:00:12;;;;;;;0.20;0.10;;;;;;;4.12;97.65;101281.41;4997764;28;20458;-55
2023/12/19 09:02:42;;;;;;;0.20;0.10;;;;;;;4.31;97.33;101276.38;4984497;28;20500;-57
2023/12/19 09:05:10;;;;;;;0.20;0.10;;;;;;;4.61;97.08;101286.38;4997437;28;20477;-54
2023/12/19 09:07:39;;;;;;;0.20;0.10;;;;;;;4.37;97.28;101285.19;4990200;28;20546;-53
2023/12/19 09:10:06;;;;;;;0.20;0.20;;;;;;;4.30;97.10;101277.22;4991396;28;20475;-53
2023/12/19 09:12:33;;;;;;;0.20;0.10;;;;;;;4.31;96.14;101290.41;4977743;28;20533;-52
2023/12/19 09:15:00;;;;;;;0.20;0.10;;;;;;;4.39;97.34;101290.50;4991681;28;20935;-54
2023/12/19 09:17:26;;;;;;;0.20;0.10;;;;;;;4.55;96.59;101275.78;4984315;28;20883;-52
2023/12/19 09:19:55;;;;;;;0.20;0.10;;;;;;;4.37;96.83;101279.94;4996921;28;20456;-54
2023/12/19 09:22:22;;;;;;;0.20;0.10;;;;;;;4.34;97.08;101277.28;4989428;28;20974;-53
2023/12/19 09:24:48;;;;;;;0.20;0.13;;;;;;;4.64;96.37;101270.59;4991907;28;20540;-53
2023/12/19 09:27:16;;;;;;;0.20;0.10;;;;;;;4.74;95.48;101275.13;4997835;28;20485;-54
2023/12/19 09:29:43;;;;;;;0.20;0.10;;;;;;;4.63;96.53;101272.34;4983628;28;20534;-53
2023/12/19 09:32:09;;;;;;;0.20;0.10;;;;;;;4.64;96.26;101260.06;5002168;28;20545;-53
2023/12/19 09:34:40;;;;;;;0.20;0.10;;;;;;;4.60;95.64;101259.16;4995300;28;20911;-53
2023/12/19 09:37:07;;;;;;;0.20;0.10;;;;;;;4.71;95.88;101262.81;4987633;28;20458;-55
2023/12/19 09:39:34;;;;;;;0.20;0.10;;;;;;;4.69;95.79;101254.00;4996596;28;20481;-55
2023/12/19 09:42:02;;;;;;;0.20;0.10;;;;;;;4.74;96.41;101256.69;4996869;28;20544;-61
2023/12/19 09:44:29;;;;;;;0.20;0.10;;;;;;;4.75;96.15;101259.34;4982209;28;20992;-59
2023/12/19 09:46:55;;;;;;;0.20;0.10;;;;;;;4.71;96.44;101260.19;4996305;28;20577;-53
2023/12/19 09:49:25;;;;;;;0.20;0.10;;;;;;;4.76;95.86;101257.56;4992848;28;20467;-55
2023/12/19 09:51:53;;;;;;;0.20;0.10;;;;;;;4.67;96.33;101247.84;4986962;28;20457;-52
2023/12/19 09:54:21;;;;;;;0.20;0.10;;;;;;;4.95;96.68;101245.50;4996393;28;20466;-52
2023/12/19 09:56:49;;;;;;;0.20;0.10;;;;;;;4.95;96.29;101232.34;4985497;28;20514;-53
2023/12/19 09:59:17;;;;;;;0.20;0.10;;;;;;;4.87;96.68;101234.88;4994124;28;20477;-52
2023/12/19 10:01:47;;;;;;;0.20;0.20;;;;;;;5.24;95.43;101237.84;4995837;28;20963;-53
2023/12/19 10:04:14;;;;;;;0.20;0.10;;;;;;;5.12;95.48;101238.63;4991554;28;20454;-53
2023/12/19 10:06:53;;;;;;;0.30;0.30;;;;;;;5.02;95.85;101224.47;4995753;28;20867;-53
2023/12/19 10:09:21;;;;;;;0.20;0.10;;;;;;;5.20;97.02;101218.47;4983737;28;20469;-53
2023/12/19 10:12:09;;;;;;;0.20;0.10;;;;;;;4.96;96.12;101203.38;4982388;28;20450;-52
2023/12/19 10:14:36;;;;;;;0.20;0.20;;;;;;;4.84;96.90;101197.97;4996178;28;20456;-57
2023/12/19 10:17:07;;;;;;;0.20;0.10;;;;;;;4.83;97.63;101198.84;4991679;28;20888;-53
2023/12/19 10:19:34;;;;;;;0.20;0.10;;;;;;;5.14;96.88;101189.44;4987255;28;20470;-52
2023/12/19 10:22:09;;;;;;;0.20;0.10;;;;;;;5.17;96.54;101167.50;4995077;28;20461;-51
2023/12/19 10:24:36;;;;;;;0.20;0.20;;;;;;;5.32;96.51;101176.41;4995434;28;20540;-51
2023/12/19 10:27:07;;;;;;;0.20;0.20;;;;;;;5.11;96.57;101171.00;4995866;28;20485;-58
2023/12/19 10:29:37;;;;;;;0.20;0.20;;;;;;;5.30;96.24;101169.38;4995482;28;20580;-51
2023/12/19 10:32:22;;;;;;;0.20;0.10;;;;;;;5.02;96.85;101155.97;4995664;28;20477;-52
2023/12/19 10:34:58;;;;;;;0.20;0.20;;;;;;;5.21;97.18;101153.50;4992112;28;20501;-51
2023/12/19 10:37:27;;;;;;;0.20;0.10;;;;;;;5.12;98.16;101141.13;4976041;28;20541;-52
2023/12/19 10:40:14;;;;;;;0.20;0.10;;;;;;;5.25;96.69;101136.84;4981639;28;20516;-51
2023/12/19 10:42:40;;;;;;;0.20;0.10;;;;;;;5.26;97.25;101136.84;4994684;28;20545;-52
2023/12/19 10:45:07;;;;;;;0.20;0.10;;;;;;;5.19;96.77;101136.78;4994339;28;20860;-55
2023/12/19 10:47:34;;;;;;;0.20;0.10;;;;;;;5.28;97.31;101134.22;4994391;28;20497;-51
2023/12/19 10:50:01;;;;;;;0.20;0.10;;;;;;;5.52;97.25;101134.38;4994352;28;20544;-51
2023/12/19 10:52:28;;;;;;;0.20;0.20;;;;;;;5.56;96.22;101137.88;4994072;28;20460;-51
2023/12/19 10:55:04;;;;;;;0.20;0.13;;;;;;;5.38;96.22;101137.78;4984937;28;20461;-51
2023/12/19 10:57:48;;;;;;;0.20;0.10;;;;;;;5.64;97.10;101139.72;4986488;28;20497;-52
2023/12/19 11:00:22;;;;;;;0.20;0.10;;;;;;;5.48;96.59;101129.97;4986224;28;20453;-51
2023/12/19 11:02:54;;;;;;;0.20;0.20;;;;;;;5.24;97.12;101124.53;4980428;28;20821;-52
2023/12/19 11:05:51;;;;;;;0.20;0.20;;;;;;;5.36;96.62;101121.97;4990418;28;20803;-51
2023/12/19 11:08:19;;;;;;;0.20;0.20;;;;;;;5.35;97.98;101114.94;4987298;28;20497;-60
2023/12/19 11:11:23;;;;;;;0.30;0.10;;;;;;;5.28;98.01;101114.00;4989828;28;20833;-53
2023/12/19 11:13:51;;;;;;;0.20;0.10;;;;;;;5.35;97.97;101102.63;4987250;28;20459;-52
2023/12/19 11:16:36;;;;;;;0.20;0.10;;;;;;;5.44;97.76;101096.50;4985962;28;20958;-51
2023/12/19 11:19:30;;;;;;;0.20;0.10;;;;;;;5.37;98.09;101085.94;4982283;28;20850;-51
2023/12/19 11:22:14;;;;;;;0.20;0.20;;;;;;;5.54;97.61;101079.00;4990249;28;20495;-52
2023/12/19 11:24:54;;;;;;;0.20;0.10;;;;;;;5.51;97.64;101071.06;4995496;28;20573;-52
2023/12/19 11:27:26;;;;;;;0.20;0.13;;;;;;;5.49;97.63;101070.19;4984463;28;20556;-51
2023/12/19 11:29:54;;;;;;;0.20;0.20;;;;;;;5.46;97.67;101059.59;4995534;28;20450;-51
2023/12/19 11:32:26;;;;;;;0.20;0.20;;;;;;;5.60;98.68;101052.63;4985917;28;20454;-51
2023/12/19 11:35:14;;;;;;;0.20;0.20;;;;;;;5.60;98.45;101050.88;4990658;28;20891;-52